Time;durP1;ratioP1;P1;durP2;ratioP2;P2;SDS_P1;SDS_P2;PMS_P1;PMS_P2;Temp;Humidity;BMP_temperature;BMP_pressure;BME280_temperature;BME280_humidity;BME280_pressure;Samples;Min_cycle;Max_cycle;Signal;HPM_P1;HPM_P2
2023/05/02 00:00:10;;;;;;;4.47;2.53;;;;;;;;;;12982690;19;20505;-65
2023/05/02 00:04:47;;;;;;;5.55;2.53;;;;;;;;;;12985639;19;20090;-64
2023/05/02 00:09:05;;;;;;;6.25;2.75;;;;;;;;;;12984262;19;20034;-66
2023/05/02 00:13:23;;;;;;;6.72;2.70;;;;;;;;;;12984958;19;20674;-64
2023/05/02 00:17:42;;;;;;;6.50;3.35;;;;;;;;;;12983769;19;20011;-65
2023/05/02 00:21:59;;;;;;;4.88;2.28;;;;;;;;;;12984091;19;20362;-64
2023/05/02 00:26:17;;;;;;;6.75;2.83;;;;;;;;;;12983919;19;20473;-65
2023/05/02 00:30:35;;;;;;;6.53;3.15;;;;;;;;;;12983322;19;20035;-65
2023/05/02 00:34:55;;;;;;;7.40;3.53;;;;;;;;;;12984221;19;20485;-66
2023/05/02 00:39:12;;;;;;;7.97;3.28;;;;;;;;;;12982429;19;20021;-66
2023/05/02 00:43:30;;;;;;;6.43;3.25;;;;;;;;;;12980524;19;20043;-65
2023/05/02 00:47:49;;;;;;;5.60;2.95;;;;;;;;;;12982499;19;20010;-66
2023/05/02 00:52:08;;;;;;;9.18;3.53;;;;;;;;;;12982383;19;20481;-65
2023/05/02 00:56:26;;;;;;;7.88;3.08;;;;;;;;;;12983180;19;20014;-65
2023/05/02 01:01:11;;;;;;;9.30;3.35;;;;;;;;;;12982732;19;20022;-66
2023/05/02 01:05:55;;;;;;;8.52;3.50;;;;;;;;;;12981962;19;20149;-66
2023/05/02 01:10:27;;;;;;;5.90;3.17;;;;;;;;;;12979468;19;20025;-66
2023/05/02 01:14:53;;;;;;;10.48;3.05;;;;;;;;;;12980927;19;20018;-65
2023/05/02 01:19:24;;;;;;;5.90;3.13;;;;;;;;;;12980654;19;20500;-65
2023/05/02 01:24:31;;;;;;;8.00;3.03;;;;;;;;;;12979693;19;20019;-65
2023/05/02 01:29:05;;;;;;;4.45;2.75;;;;;;;;;;12973037;19;20010;-65
2023/05/02 01:33:25;;;;;;;5.80;3.50;;;;;;;;;;12990886;19;20042;-66
2023/05/02 01:37:45;;;;;;;5.15;2.78;;;;;;;;;;12993304;19;20465;-65
2023/05/02 01:42:04;;;;;;;5.57;2.90;;;;;;;;;;12989849;19;20516;-66
2023/05/02 01:46:29;;;;;;;9.25;3.45;;;;;;;;;;12993733;19;20038;-68
2023/05/02 01:50:49;;;;;;;5.78;3.00;;;;;;;;;;12992521;19;20014;-65
2023/05/02 01:55:10;;;;;;;4.53;3.17;;;;;;;;;;12992268;19;20007;-65
2023/05/02 01:59:29;;;;;;;6.55;3.38;;;;;;;;;;12990950;19;20361;-67
2023/05/02 02:03:47;;;;;;;8.30;3.03;;;;;;;;;;12992665;19;20329;-66
2023/05/02 02:08:05;;;;;;;6.47;2.60;;;;;;;;;;12991384;19;20014;-66
2023/05/02 02:12:37;;;;;;;7.75;3.38;;;;;;;;;;12991847;19;20018;-65
2023/05/02 02:17:00;;;;;;;5.57;3.13;;;;;;;;;;12988741;19;20014;-65
2023/05/02 02:21:20;;;;;;;7.20;3.47;;;;;;;;;;12989353;19;20013;-66
2023/05/02 02:25:39;;;;;;;7.65;3.40;;;;;;;;;;12988925;19;20017;-65
2023/05/02 02:29:56;;;;;;;6.45;3.00;;;;;;;;;;12988729;19;20010;-67
2023/05/02 02:34:15;;;;;;;;;;;;;;;;;;12990434;19;20042;-67
2023/05/02 02:39:03;;;;;;;4.72;3.08;;;;;;;;;;12990102;19;20259;-66
2023/05/02 02:43:54;;;;;;;8.70;3.15;;;;;;;;;;12987432;19;20026;-66
2023/05/02 02:48:37;;;;;;;6.22;2.75;;;;;;;;;;12988572;19;20010;-66
2023/05/02 02:53:04;;;;;;;6.50;2.88;;;;;;;;;;12989157;19;20015;-66
2023/05/02 02:57:53;;;;;;;6.57;3.05;;;;;;;;;;12987021;19;20051;-66
2023/05/02 03:02:16;;;;;;;6.15;3.05;;;;;;;;;;12987300;19;20343;-65
2023/05/02 03:06:34;;;;;;;5.55;2.92;;;;;;;;;;12989120;19;20014;-66
2023/05/02 03:10:52;;;;;;;12.35;3.78;;;;;;;;;;12987969;19;20026;-66
2023/05/02 03:15:40;;;;;;;5.07;2.78;;;;;;;;;;12987343;19;20015;-65
2023/05/02 03:19:58;;;;;;;7.25;3.15;;;;;;;;;;12987786;19;20010;-65
2023/05/02 03:24:16;;;;;;;9.50;2.97;;;;;;;;;;12986822;19;20029;-65
2023/05/02 03:28:35;;;;;;;4.40;2.40;;;;;;;;;;12986738;19;20018;-65
2023/05/02 03:32:53;;;;;;;4.90;2.65;;;;;;;;;;12986888;19;20011;-65
2023/05/02 03:37:11;;;;;;;5.22;2.80;;;;;;;;;;12987073;19;20018;-65
2023/05/02 03:41:28;;;;;;;8.48;2.58;;;;;;;;;;12986304;19;20026;-64
2023/05/02 03:45:46;;;;;;;4.88;2.65;;;;;;;;;;12986467;19;20014;-66
2023/05/02 03:50:06;;;;;;;6.68;2.72;;;;;;;;;;12984307;19;20018;-65
2023/05/02 03:54:24;;;;;;;9.57;3.35;;;;;;;;;;12984156;19;20022;-66
2023/05/02 03:58:42;;;;;;;;;;;;;;;;;;12986209;19;20452;-67
2023/05/02 04:03:01;;;;;;;3.55;2.22;;;;;;;;;;12985183;19;19918;-65
2023/05/02 04:07:19;;;;;;;3.53;2.03;;;;;;;;;;12983251;19;20014;-66
2023/05/02 04:11:36;;;;;;;3.60;2.13;;;;;;;;;;12983554;19;20018;-65
2023/05/02 04:15:54;;;;;;;4.53;2.67;;;;;;;;;;12984896;19;20490;-65
2023/05/02 04:20:12;;;;;;;;;;;;;;;;;;12984961;19;20022;-64
2023/05/02 04:24:30;;;;;;;5.75;2.30;;;;;;;;;;12984393;19;19918;-65
2023/05/02 04:28:47;;;;;;;7.45;2.15;;;;;;;;;;12983699;19;20584;-65
2023/05/02 04:33:04;;;;;;;4.45;2.40;;;;;;;;;;12982029;19;20015;-65
2023/05/02 04:37:22;;;;;;;8.90;2.60;;;;;;;;;;12983584;19;20014;-65
2023/05/02 04:41:41;;;;;;;7.53;2.67;;;;;;;;;;12982043;19;20461;-65
2023/05/02 04:45:59;;;;;;;6.63;2.42;;;;;;;;;;12982895;19;20025;-65
2023/05/02 04:50:17;;;;;;;6.30;2.38;;;;;;;;;;12982353;19;20368;-64
2023/05/02 04:54:35;;;;;;;5.18;3.13;;;;;;;;;;12982274;19;20011;-65
2023/05/02 04:58:53;;;;;;;15.00;2.55;;;;;;;;;;12982300;19;20010;-65
2023/05/02 05:03:10;;;;;;;13.85;3.10;;;;;;;;;;12981515;19;20014;-65
2023/05/02 05:07:28;;;;;;;4.75;2.88;;;;;;;;;;12982476;19;20421;-65
2023/05/02 05:11:46;;;;;;;6.65;3.17;;;;;;;;;;12981347;19;20006;-65
2023/05/02 05:16:04;;;;;;;24.80;5.63;;;;;;;;;;12980792;19;20014;-65
2023/05/02 05:20:22;;;;;;;;;;;;;;;;;;12982683;19;20010;-66
2023/05/02 05:24:39;;;;;;;14.07;2.67;;;;;;;;;;12981653;19;19933;-64
2023/05/02 05:28:57;;;;;;;5.20;1.60;;;;;;;;;;12980612;19;20812;-65
2023/05/02 05:33:15;;;;;;;3.35;1.50;;;;;;;;;;12980088;19;20611;-66
2023/05/02 05:37:33;;;;;;;2.83;1.27;;;;;;;;;;12980340;19;20476;-65
2023/05/02 05:41:53;;;;;;;4.47;1.48;;;;;;;;;;12979565;19;20017;-65
2023/05/02 05:46:11;;;;;;;3.25;1.52;;;;;;;;;;12979606;19;20014;-65
2023/05/02 05:50:28;;;;;;;3.25;2.03;;;;;;;;;;12979746;19;20028;-65
2023/05/02 05:54:46;;;;;;;2.47;1.45;;;;;;;;;;12979611;19;20029;-65
2023/05/02 05:59:04;;;;;;;4.15;1.20;;;;;;;;;;12978681;19;20014;-65
2023/05/02 06:03:21;;;;;;;4.43;1.58;;;;;;;;;;12979439;19;20030;-65
2023/05/02 06:07:40;;;;;;;2.22;1.08;;;;;;;;;;12980032;19;20029;-65
2023/05/02 06:11:57;;;;;;;3.53;2.00;;;;;;;;;;12978851;19;20018;-66
2023/05/02 06:16:16;;;;;;;5.93;2.50;;;;;;;;;;12981853;19;20014;-66
2023/05/02 06:20:36;;;;;;;2.88;1.42;;;;;;;;;;12991011;19;20017;-66
2023/05/02 06:24:53;;;;;;;3.67;1.98;;;;;;;;;;12990627;19;20484;-66
2023/05/02 06:29:11;;;;;;;5.07;1.90;;;;;;;;;;12987773;19;20014;-66
2023/05/02 06:33:29;;;;;;;3.05;1.75;;;;;;;;;;12990253;19;20018;-66
2023/05/02 06:37:47;;;;;;;1.85;1.17;;;;;;;;;;12990532;19;20014;-67
2023/05/02 06:42:05;;;;;;;2.72;1.48;;;;;;;;;;12988833;19;20014;-66
2023/05/02 06:46:22;;;;;;;4.97;1.90;;;;;;;;;;12987889;19;20034;-66
2023/05/02 06:50:40;;;;;;;3.92;1.55;;;;;;;;;;12990015;19;20018;-68
2023/05/02 06:54:58;;;;;;;2.58;1.30;;;;;;;;;;12989777;19;20022;-67
2023/05/02 06:59:15;;;;;;;9.48;1.55;;;;;;;;;;12988950;19;20018;-66
2023/05/02 07:03:33;;;;;;;5.40;2.80;;;;;;;;;;12989168;19;20006;-66
2023/05/02 07:07:51;;;;;;;2.28;1.42;;;;;;;;;;12989026;19;20363;-66
2023/05/02 07:12:08;;;;;;;2.72;1.33;;;;;;;;;;12987736;19;20018;-66
2023/05/02 07:16:27;;;;;;;2.03;1.30;;;;;;;;;;12988547;19;20007;-66
2023/05/02 07:20:45;;;;;;;1.55;1.40;;;;;;;;;;12986572;19;20366;-66
2023/05/02 07:25:03;;;;;;;3.35;1.42;;;;;;;;;;12986890;19;20412;-66
2023/05/02 07:29:21;;;;;;;2.20;1.27;;;;;;;;;;12984580;19;20062;-66
2023/05/02 07:33:38;;;;;;;3.15;1.55;;;;;;;;;;12986431;19;20368;-65
2023/05/02 07:37:56;;;;;;;3.05;1.35;;;;;;;;;;12987215;19;20374;-65
2023/05/02 07:42:14;;;;;;;2.60;1.50;;;;;;;;;;12985891;19;20374;-65
2023/05/02 07:46:32;;;;;;;1.52;1.00;;;;;;;;;;12987031;19;20002;-66
2023/05/02 07:50:49;;;;;;;2.80;1.30;;;;;;;;;;12986357;19;20007;-66
2023/05/02 07:55:08;;;;;;;2.90;1.40;;;;;;;;;;12986484;19;20022;-65
2023/05/02 07:59:30;;;;;;;5.50;2.13;;;;;;;;;;12986156;19;20386;-65
2023/05/02 08:03:48;;;;;;;2.40;1.35;;;;;;;;;;12985976;19;20468;-65
2023/05/02 08:08:06;;;;;;;5.15;1.92;;;;;;;;;;12984919;19;20041;-66
2023/05/02 08:12:24;;;;;;;2.95;1.40;;;;;;;;;;12983750;19;20018;-66
2023/05/02 08:16:42;;;;;;;3.22;1.58;;;;;;;;;;12982624;19;20362;-65
2023/05/02 08:21:03;;;;;;;3.72;1.65;;;;;;;;;;12983963;19;20115;-65
2023/05/02 08:25:20;;;;;;;;;;;;;;;;;;12984870;19;20034;-65
2023/05/02 08:29:38;;;;;;;2.92;1.73;;;;;;;;;;12983780;19;19922;-66
2023/05/02 08:33:56;;;;;;;3.38;2.15;;;;;;;;;;12984474;19;20010;-66
2023/05/02 08:38:13;;;;;;;4.63;2.33;;;;;;;;;;12982941;19;20006;-67
2023/05/02 08:42:33;;;;;;;4.15;2.17;;;;;;;;;;12983450;19;20015;-67
2023/05/02 08:46:52;;;;;;;2.90;1.77;;;;;;;;;;12984837;19;20453;-66
2023/05/02 08:51:14;;;;;;;3.30;1.70;;;;;;;;;;12980627;19;20014;-66
2023/05/02 08:55:35;;;;;;;2.83;1.58;;;;;;;;;;12982848;19;20015;-67
2023/05/02 08:59:53;;;;;;;3.03;1.73;;;;;;;;;;12981922;19;20370;-66
2023/05/02 09:04:10;;;;;;;3.20;1.60;;;;;;;;;;12981225;19;20017;-67
2023/05/02 09:08:28;;;;;;;;;;;;;;;;;;12981027;19;20405;-66
2023/05/02 09:12:46;;;;;;;3.10;1.58;;;;;;;;;;12981105;19;20278;-66
2023/05/02 09:17:04;;;;;;;3.45;1.92;;;;;;;;;;12980994;19;20015;-67
2023/05/02 09:21:33;;;;;;;;;;;;;;;;;;12982223;19;20006;-66
2023/05/02 09:25:51;;;;;;;1.85;1.30;;;;;;;;;;12982518;19;19918;-66
2023/05/02 09:30:23;;;;;;;2.58;1.40;;;;;;;;;;12977938;19;20018;-66
2023/05/02 09:35:05;;;;;;;3.17;1.40;;;;;;;;;;12980777;19;20334;-66
2023/05/02 09:39:28;;;;;;;1.98;1.20;;;;;;;;;;12979580;19;20010;-66
2023/05/02 09:43:58;;;;;;;3.90;1.77;;;;;;;;;;12978532;19;20006;-66
2023/05/02 09:48:16;;;;;;;3.05;1.73;;;;;;;;;;12979552;19;20015;-66
2023/05/02 09:52:34;;;;;;;2.20;1.60;;;;;;;;;;12987067;19;20018;-67
2023/05/02 09:56:56;;;;;;;4.32;2.25;;;;;;;;;;12992633;19;20418;-66
2023/05/02 10:01:18;;;;;;;6.68;1.80;;;;;;;;;;12992214;19;20014;-67
2023/05/02 10:05:38;;;;;;;2.92;1.63;;;;;;;;;;12992808;19;20370;-65
2023/05/02 10:09:59;;;;;;;3.83;2.22;;;;;;;;;;12991280;19;20006;-65
2023/05/02 10:14:21;;;;;;;3.95;1.98;;;;;;;;;;12989534;19;20114;-65
2023/05/02 10:18:51;;;;;;;4.70;1.80;;;;;;;;;;12990981;19;20021;-63
2023/05/02 10:23:10;;;;;;;3.38;2.40;;;;;;;;;;12989929;19;20025;-63
2023/05/02 10:27:31;;;;;;;3.08;1.80;;;;;;;;;;12990925;19;20021;-63
2023/05/02 10:31:50;;;;;;;3.95;2.00;;;;;;;;;;12990430;19;20018;-63
2023/05/02 10:36:13;;;;;;;7.22;1.88;;;;;;;;;;12989381;19;20010;-63
2023/05/02 10:40:31;;;;;;;4.63;1.80;;;;;;;;;;12989700;19;20022;-63
2023/05/02 10:44:49;;;;;;;2.92;1.42;;;;;;;;;;12987857;19;20660;-63
2023/05/02 10:49:10;;;;;;;2.53;1.42;;;;;;;;;;12987590;19;20014;-62
2023/05/02 10:53:35;;;;;;;3.75;1.85;;;;;;;;;;12988655;19;20006;-62
2023/05/02 10:57:56;;;;;;;2.13;1.42;;;;;;;;;;12990254;19;20014;-62
2023/05/02 11:02:22;;;;;;;2.97;1.70;;;;;;;;;;12988686;19;20011;-62
2023/05/02 11:06:58;;;;;;;3.80;1.85;;;;;;;;;;12989054;19;20028;-62
2023/05/02 11:11:42;;;;;;;1.85;1.50;;;;;;;;;;12985882;19;20033;-62
2023/05/02 11:16:00;;;;;;;5.20;1.92;;;;;;;;;;12987949;19;20011;-61
2023/05/02 11:20:19;;;;;;;2.88;1.52;;;;;;;;;;12987849;19;20021;-62
2023/05/02 11:24:41;;;;;;;3.42;1.50;;;;;;;;;;12986259;19;20003;-62
2023/05/02 11:28:59;;;;;;;3.55;1.85;;;;;;;;;;12986907;19;20010;-62
2023/05/02 11:33:18;;;;;;;4.57;1.67;;;;;;;;;;12986243;19;20010;-62
2023/05/02 11:37:36;;;;;;;2.67;1.85;;;;;;;;;;12987308;19;20007;-63
2023/05/02 11:41:54;;;;;;;4.70;2.17;;;;;;;;;;12986686;19;20488;-63
2023/05/02 11:46:12;;;;;;;;;;;;;;;;;;12987823;19;20011;-63
2023/05/02 11:50:29;;;;;;;2.03;1.52;;;;;;;;;;12985631;19;19919;-63
2023/05/02 11:54:49;;;;;;;4.18;2.20;;;;;;;;;;12984719;19;20476;-63
2023/05/02 11:59:07;;;;;;;4.18;2.60;;;;;;;;;;12984673;19;20006;-63
2023/05/02 12:03:30;;;;;;;2.25;1.77;;;;;;;;;;12985894;19;20033;-62
2023/05/02 12:07:48;;;;;;;2.38;1.77;;;;;;;;;;12985872;19;20025;-63
2023/05/02 12:12:06;;;;;;;;;;;;;;;;;;12984548;19;20021;-65
2023/05/02 12:16:24;;;;;;;5.25;2.08;;;;;;;;;;12983013;19;19915;-63
2023/05/02 12:20:42;;;;;;;3.97;1.88;;;;;;;;;;12985179;19;20029;-63
2023/05/02 12:25:02;;;;;;;6.45;2.17;;;;;;;;;;12983367;19;20018;-63
2023/05/02 12:29:21;;;;;;;2.90;1.92;;;;;;;;;;12983163;19;20040;-63
2023/05/02 12:33:42;;;;;;;3.58;2.08;;;;;;;;;;12984593;19;20036;-63
2023/05/02 12:38:14;;;;;;;3.97;2.00;;;;;;;;;;12983926;19;20014;-63
2023/05/02 12:42:33;;;;;;;4.63;1.85;;;;;;;;;;12982429;19;20500;-63
2023/05/02 12:47:00;;;;;;;2.67;2.03;;;;;;;;;;12983015;19;20021;-63
2023/05/02 12:51:23;;;;;;;4.50;1.73;;;;;;;;;;12982072;19;20045;-62
2023/05/02 12:55:41;;;;;;;46.22;4.30;;;;;;;;;;12982894;19;20768;-63
2023/05/02 12:59:58;;;;;;;3.35;1.95;;;;;;;;;;12982333;19;20021;-63
2023/05/02 13:04:16;;;;;;;5.50;2.38;;;;;;;;;;12979210;19;20018;-62
2023/05/02 13:08:35;;;;;;;4.05;1.90;;;;;;;;;;12982219;19;20657;-62
2023/05/02 13:12:53;;;;;;;13.77;2.30;;;;;;;;;;12981819;19;20017;-62
2023/05/02 13:17:11;;;;;;;4.32;2.05;;;;;;;;;;12982162;19;20022;-62
2023/05/02 13:21:30;;;;;;;7.63;2.45;;;;;;;;;;12982325;19;20034;-62
2023/05/02 13:25:48;;;;;;;6.05;2.83;;;;;;;;;;12978474;19;20014;-62
2023/05/02 13:30:07;;;;;;;1.70;1.27;;;;;;;;;;12981226;19;20390;-62
2023/05/02 13:34:26;;;;;;;2.92;1.88;;;;;;;;;;12980039;19;20034;-62
2023/05/02 13:38:44;;;;;;;2.90;1.95;;;;;;;;;;12980201;19;20014;-62
2023/05/02 13:43:01;;;;;;;;;;;;;;;;;;12980127;19;20010;-62
2023/05/02 13:47:20;;;;;;;4.90;1.40;;;;;;;;;;12980231;19;19923;-62
2023/05/02 13:51:38;;;;;;;5.82;1.92;;;;;;;;;;12979394;19;20474;-63
2023/05/02 13:55:56;;;;;;;3.63;1.73;;;;;;;;;;12978354;19;20011;-63
2023/05/02 14:00:15;;;;;;;2.13;1.40;;;;;;;;;;12980067;19;20018;-62
2023/05/02 14:04:33;;;;;;;2.85;1.27;;;;;;;;;;12979755;19;20010;-62
2023/05/02 14:08:50;;;;;;;5.28;1.55;;;;;;;;;;12979285;19;20014;-62
2023/05/02 14:13:08;;;;;;;4.32;2.05;;;;;;;;;;12977010;19;20033;-61
2023/05/02 14:17:26;;;;;;;2.08;1.52;;;;;;;;;;12978742;19;20010;-61
2023/05/02 14:21:43;;;;;;;;;;;;;;;;;;12968445;19;20014;-62
2023/05/02 14:26:01;;;;;;;6.43;3.03;;;;;;;;;;12973666;19;20278;-67
2023/05/02 14:30:19;;;;;;;;;;;;;;;;;;12978639;19;20022;-62
2023/05/02 14:34:36;;;;;;;2.55;1.38;;;;;;;;;;12978019;19;19918;-62
2023/05/02 14:38:56;;;;;;;7.97;3.35;;;;;;;;;;12986978;19;20018;-62
2023/05/02 14:43:13;;;;;;;7.80;2.70;;;;;;;;;;12988631;19;20018;-62
2023/05/02 14:47:31;;;;;;;5.10;1.95;;;;;;;;;;12990067;19;20014;-62
2023/05/02 14:51:49;;;;;;;2.97;1.83;;;;;;;;;;12989011;19;20485;-62
2023/05/02 14:56:12;;;;;;;2.13;1.20;;;;;;;;;;12988659;19;20021;-63
2023/05/02 15:00:33;;;;;;;1.63;0.70;;;;;;;;;;12989366;19;20019;-62
2023/05/02 15:04:51;;;;;;;1.85;1.30;;;;;;;;;;12988816;19;20019;-63
2023/05/02 15:09:09;;;;;;;2.10;1.25;;;;;;;;;;12986202;19;20007;-62
2023/05/02 15:13:27;;;;;;;6.55;2.25;;;;;;;;;;12988339;19;20025;-61
2023/05/02 15:17:45;;;;;;;4.45;1.65;;;;;;;;;;12988553;19;20014;-62
2023/05/02 15:22:02;;;;;;;8.38;2.60;;;;;;;;;;12987326;19;20018;-62
2023/05/02 15:26:22;;;;;;;2.33;1.17;;;;;;;;;;12988817;19;20018;-62
2023/05/02 15:30:39;;;;;;;6.55;2.20;;;;;;;;;;12987617;19;20583;-62
2023/05/02 15:34:57;;;;;;;;;;;;;;;;;;12987789;19;20019;-62
2023/05/02 15:39:14;;;;;;;4.50;2.58;;;;;;;;;;12986707;19;19918;-62
2023/05/02 15:43:32;;;;;;;5.28;1.77;;;;;;;;;;12985686;19;20017;-61
2023/05/02 15:47:51;;;;;;;5.30;1.98;;;;;;;;;;12984618;19;20019;-63
2023/05/02 15:52:08;;;;;;;4.70;2.65;;;;;;;;;;12985498;19;20014;-63
2023/05/02 15:56:26;;;;;;;8.57;2.95;;;;;;;;;;12986430;19;20021;-62
2023/05/02 16:00:45;;;;;;;10.07;3.10;;;;;;;;;;12986173;19;20006;-62
2023/05/02 16:05:04;;;;;;;6.50;2.38;;;;;;;;;;12985438;19;20033;-62
2023/05/02 16:09:24;;;;;;;8.02;4.13;;;;;;;;;;12985656;19;20025;-62
2023/05/02 16:13:41;;;;;;;2.78;1.65;;;;;;;;;;12984786;19;20077;-62
2023/05/02 16:17:59;;;;;;;4.53;1.98;;;;;;;;;;12984381;19;20014;-61
2023/05/02 16:22:17;;;;;;;2.35;1.55;;;;;;;;;;12984441;19;20387;-61
2023/05/02 16:26:34;;;;;;;2.67;1.70;;;;;;;;;;12984534;19;20018;-62
2023/05/02 16:30:52;;;;;;;3.00;1.60;;;;;;;;;;12983580;19;20011;-62
2023/05/02 16:35:11;;;;;;;8.18;3.17;;;;;;;;;;12983599;19;20114;-62
2023/05/02 16:39:29;;;;;;;10.68;4.65;;;;;;;;;;12984489;19;20019;-62
2023/05/02 16:43:48;;;;;;;5.70;3.38;;;;;;;;;;12983402;19;20014;-62
2023/05/02 16:48:06;;;;;;;5.57;3.33;;;;;;;;;;12982347;19;20014;-63
2023/05/02 16:52:25;;;;;;;;;;;;;;;;;;12983971;19;20345;-63
2023/05/02 16:56:43;;;;;;;3.97;2.25;;;;;;;;;;12982239;19;19926;-63
2023/05/02 17:01:04;;;;;;;20.23;7.07;;;;;;;;;;12981757;19;20009;-63
2023/05/02 17:05:21;;;;;;;13.57;8.02;;;;;;;;;;12982373;19;20025;-62
2023/05/02 17:09:41;;;;;;;6.10;3.60;;;;;;;;;;12958881;19;20010;-63
2023/05/02 17:13:58;;;;;;;11.65;6.82;;;;;;;;;;12980651;19;20116;-64
2023/05/02 17:18:17;;;;;;;6.80;4.22;;;;;;;;;;12981394;19;20014;-63
2023/05/02 17:22:37;;;;;;;4.60;2.55;;;;;;;;;;12982310;19;20754;-62
2023/05/02 17:26:54;;;;;;;7.18;3.30;;;;;;;;;;12981617;19;20011;-63
2023/05/02 17:31:12;;;;;;;20.50;16.30;;;;;;;;;;12979461;19;20379;-63
2023/05/02 17:35:30;;;;;;;;;;;;;;;;;;12981928;19;20010;-63
2023/05/02 17:39:48;;;;;;;8.00;4.68;;;;;;;;;;12981850;19;20477;-63
2023/05/02 17:44:06;;;;;;;8.93;4.72;;;;;;;;;;12979622;19;20029;-65
2023/05/02 17:48:24;;;;;;;29.50;19.92;;;;;;;;;;12980413;19;20346;-64
2023/05/02 17:52:41;;;;;;;18.98;8.52;;;;;;;;;;12977637;19;20082;-64
2023/05/02 17:56:59;;;;;;;16.40;7.45;;;;;;;;;;12979730;19;20030;-64
2023/05/02 18:01:17;;;;;;;12.45;5.60;;;;;;;;;;12978963;19;20014;-65
2023/05/02 18:05:38;;;;;;;6.38;3.40;;;;;;;;;;12978556;19;20473;-66
2023/05/02 18:09:56;;;;;;;18.88;8.25;;;;;;;;;;12976771;19;20032;-66
2023/05/02 18:14:14;;;;;;;7.55;4.85;;;;;;;;;;12988218;19;20026;-66
2023/05/02 18:18:33;;;;;;;55.58;20.77;;;;;;;;;;12991897;19;20734;-66
2023/05/02 18:22:51;;;;;;;27.48;11.70;;;;;;;;;;12991200;19;20202;-66
2023/05/02 18:27:09;;;;;;;13.02;6.05;;;;;;;;;;12991136;19;20015;-66
2023/05/02 18:31:27;;;;;;;12.00;4.70;;;;;;;;;;12990705;19;20021;-66
2023/05/02 18:35:46;;;;;;;22.52;10.13;;;;;;;;;;12990199;19;20417;-66
2023/05/02 18:40:04;;;;;;;18.25;10.48;;;;;;;;;;12989370;19;20018;-66
2023/05/02 18:44:22;;;;;;;;;;;;;;;;;;12989851;19;20014;-66
2023/05/02 18:48:39;;;;;;;15.60;7.70;;;;;;;;;;12989326;19;19919;-67
2023/05/02 18:52:57;;;;;;;17.27;9.23;;;;;;;;;;12988410;19;20038;-67
2023/05/02 18:57:15;;;;;;;17.02;8.77;;;;;;;;;;12988741;19;20474;-66
2023/05/02 19:01:33;;;;;;;;;;;;;;;;;;12989315;19;20014;-66
2023/05/02 19:05:55;;;;;;;6.45;3.85;;;;;;;;;;12989261;19;20334;-66
2023/05/02 19:10:13;;;;;;;9.18;3.83;;;;;;;;;;12987757;19;20031;-67
2023/05/02 19:14:32;;;;;;;7.22;4.60;;;;;;;;;;12988569;19;20035;-67
2023/05/02 19:18:52;;;;;;;10.88;5.72;;;;;;;;;;12989215;19;20010;-66
2023/05/02 19:23:11;;;;;;;11.18;5.47;;;;;;;;;;12987467;19;20488;-66
2023/05/02 19:27:36;;;;;;;22.58;10.02;;;;;;;;;;12988004;19;20414;-66
2023/05/02 19:31:55;;;;;;;41.85;16.63;;;;;;;;;;12986796;19;20010;-66
2023/05/02 19:36:13;;;;;;;13.45;6.82;;;;;;;;;;12986140;19;20015;-66
2023/05/02 19:40:31;;;;;;;;;;;;;;;;;;12985209;19;20423;-67
2023/05/02 19:44:49;;;;;;;7.95;4.55;;;;;;;;;;12986398;19;19915;-67
2023/05/02 19:49:07;;;;;;;11.27;5.88;;;;;;;;;;12984966;19;20015;-66
2023/05/02 19:53:24;;;;;;;18.00;7.80;;;;;;;;;;12985996;19;20370;-66
2023/05/02 19:57:43;;;;;;;12.50;6.50;;;;;;;;;;12986491;19;20025;-66
2023/05/02 20:02:01;;;;;;;15.57;9.02;;;;;;;;;;12986290;19;20014;-66
2023/05/02 20:06:19;;;;;;;;;;;;;;;;;;12985272;19;20023;-65
2023/05/02 20:10:37;;;;;;;16.42;10.30;;;;;;;;;;12985879;19;19921;-65
2023/05/02 20:14:56;;;;;;;15.75;9.07;;;;;;;;;;12962927;19;20010;-65
2023/05/02 20:19:14;;;;;;;17.77;10.50;;;;;;;;;;12983647;19;20011;-66
2023/05/02 20:23:42;;;;;;;17.27;10.30;;;;;;;;;;12984801;19;20010;-65
2023/05/02 20:28:00;;;;;;;15.52;9.65;;;;;;;;;;12984339;19;20466;-67
2023/05/02 20:32:17;;;;;;;10.60;6.63;;;;;;;;;;12983816;19;20013;-66
2023/05/02 20:36:35;;;;;;;12.23;6.40;;;;;;;;;;12982730;19;20021;-65
2023/05/02 20:40:53;;;;;;;10.35;5.68;;;;;;;;;;12983670;19;20484;-66
2023/05/02 20:45:12;;;;;;;6.50;3.92;;;;;;;;;;12983082;19;20342;-67
2023/05/02 20:49:31;;;;;;;6.70;4.63;;;;;;;;;;12983832;19;20022;-67
2023/05/02 20:53:48;;;;;;;6.25;4.22;;;;;;;;;;12983836;19;20042;-67
2023/05/02 20:58:06;;;;;;;9.47;4.70;;;;;;;;;;12980454;19;20014;-67
2023/05/02 21:02:27;;;;;;;9.88;4.93;;;;;;;;;;12983484;19;20018;-67
2023/05/02 21:06:45;;;;;;;10.30;5.28;;;;;;;;;;12982808;19;20025;-67
2023/05/02 21:11:13;;;;;;;26.38;7.47;;;;;;;;;;12980681;19;20118;-66
2023/05/02 21:15:34;;;;;;;;;;;;;;;;;;12982260;19;20018;-66
2023/05/02 21:19:54;;;;;;;15.25;6.03;;;;;;;;;;12980893;19;19946;-66
2023/05/02 21:24:12;;;;;;;10.05;4.75;;;;;;;;;;12980847;19;20026;-66
2023/05/02 21:28:30;;;;;;;10.88;5.28;;;;;;;;;;12981242;19;20018;-66
2023/05/02 21:32:48;;;;;;;;;;;;;;;;;;12981777;19;20071;-66
2023/05/02 21:37:05;;;;;;;11.10;5.38;;;;;;;;;;12980326;19;19918;-67
2023/05/02 21:41:24;;;;;;;11.85;6.18;;;;;;;;;;12980010;19;20343;-66
2023/05/02 21:45:47;;;;;;;9.95;5.05;;;;;;;;;;12980403;19;20029;-66
2023/05/02 21:50:05;;;;;;;11.90;5.75;;;;;;;;;;12991576;19;20146;-66
2023/05/02 21:54:23;;;;;;;12.50;6.10;;;;;;;;;;12992911;19;20045;-66
2023/05/02 21:58:41;;;;;;;14.63;7.35;;;;;;;;;;12992766;19;20014;-67
2023/05/02 22:03:04;;;;;;;15.10;8.18;;;;;;;;;;12992168;19;20022;-66
2023/05/02 22:07:23;;;;;;;12.35;6.28;;;;;;;;;;12991234;19;20018;-66
2023/05/02 22:11:42;;;;;;;14.65;7.88;;;;;;;;;;12991972;19;20030;-66
2023/05/02 22:15:59;;;;;;;13.30;7.22;;;;;;;;;;12990240;19;20011;-66
2023/05/02 22:20:17;;;;;;;11.45;6.75;;;;;;;;;;12991269;19;20018;-68
2023/05/02 22:24:35;;;;;;;12.85;8.52;;;;;;;;;;12992315;19;20010;-67
2023/05/02 22:28:52;;;;;;;13.27;7.13;;;;;;;;;;12991133;19;20010;-67
2023/05/02 22:33:10;;;;;;;9.25;5.80;;;;;;;;;;12989398;19;20022;-68
2023/05/02 22:37:29;;;;;;;12.27;5.50;;;;;;;;;;12990732;19;20006;-68
2023/05/02 22:41:47;;;;;;;9.30;5.32;;;;;;;;;;12988986;19;20015;-67
2023/05/02 22:46:04;;;;;;;8.70;5.07;;;;;;;;;;12985542;19;20021;-67
2023/05/02 22:50:23;;;;;;;8.52;5.50;;;;;;;;;;12985941;19;20015;-67
2023/05/02 22:54:41;;;;;;;7.30;4.30;;;;;;;;;;12985160;19;20010;-67
2023/05/02 22:58:58;;;;;;;8.65;4.22;;;;;;;;;;12984565;19;20358;-67
2023/05/02 23:03:16;;;;;;;7.80;4.20;;;;;;;;;;12985031;19;20477;-67
2023/05/02 23:07:34;;;;;;;5.82;3.97;;;;;;;;;;12985187;19;20010;-67
2023/05/02 23:11:52;;;;;;;11.55;5.55;;;;;;;;;;12984342;19;20014;-66
2023/05/02 23:16:10;;;;;;;11.60;5.80;;;;;;;;;;12983832;19;20014;-66
2023/05/02 23:20:27;;;;;;;11.18;5.40;;;;;;;;;;12985222;19;20045;-66
2023/05/02 23:24:46;;;;;;;9.48;5.13;;;;;;;;;;12984783;19;20022;-66
2023/05/02 23:29:05;;;;;;;9.52;5.20;;;;;;;;;;12983449;19;20015;-66
2023/05/02 23:33:24;;;;;;;7.47;5.00;;;;;;;;;;12982949;19;20025;-66
2023/05/02 23:37:43;;;;;;;8.93;4.57;;;;;;;;;;12983496;19;20017;-66
2023/05/02 23:42:02;;;;;;;6.68;4.63;;;;;;;;;;12836681;19;2877733;-68
2023/05/02 23:46:20;;;;;;;8.80;5.10;;;;;;;;;;12986532;19;20006;-66
2023/05/02 23:50:38;;;;;;;8.98;4.78;;;;;;;;;;12987395;19;20029;-66
2023/05/02 23:54:55;;;;;;;8.07;4.88;;;;;;;;;;12986068;19;20026;-66
2023/05/02 23:59:13;;;;;;;6.88;4.28;;;;;;;;;;12985543;19;20011;-66
